createdAt,value
2017-05-19T00:00:31.236Z,1006.54
2017-05-19T00:01:12.128Z,1006.52
2017-05-19T00:01:53.038Z,1006.53
2017-05-19T00:02:33.934Z,1006.54
2017-05-19T00:03:14.826Z,1006.53
2017-05-19T00:03:55.720Z,1006.53
2017-05-19T00:04:36.620Z,1006.49
2017-05-19T00:05:17.545Z,1006.48
2017-05-19T00:05:58.428Z,1006.48
2017-05-19T00:06:39.361Z,1006.54
2017-05-19T00:07:20.226Z,1006.55
2017-05-19T00:08:01.123Z,1006.53
2017-05-19T00:08:42.016Z,1006.54
2017-05-19T00:09:22.909Z,1006.55
2017-05-19T00:10:03.802Z,1006.55
2017-05-19T00:10:44.703Z,1006.54
2017-05-19T00:11:25.577Z,1006.53
2017-05-19T00:12:06.627Z,1006.49
2017-05-19T00:12:47.504Z,1006.5
2017-05-19T00:13:28.395Z,1006.52
2017-05-19T00:14:09.288Z,1006.5
2017-05-19T00:14:50.175Z,1006.49
2017-05-19T00:15:31.062Z,1006.5
2017-05-19T00:16:11.964Z,1006.52
2017-05-19T00:16:52.843Z,1006.5
2017-05-19T00:17:33.737Z,1006.52
2017-05-19T00:18:14.632Z,1006.52
2017-05-19T00:18:55.546Z,1006.51
2017-05-19T00:19:36.466Z,1006.49
2017-05-19T00:20:17.364Z,1006.51
2017-05-19T00:20:58.259Z,1006.47
2017-05-19T00:21:39.155Z,1006.47
2017-05-19T00:22:20.026Z,1006.5
2017-05-19T00:23:00.909Z,1006.47
2017-05-19T00:23:41.825Z,1006.48
2017-05-19T00:24:22.734Z,1006.46
2017-05-19T00:25:03.630Z,1006.46
2017-05-19T00:25:44.536Z,1006.45
2017-05-19T00:26:25.433Z,1006.43
2017-05-19T00:27:06.325Z,1006.43
2017-05-19T00:27:47.217Z,1006.46
2017-05-19T00:28:28.144Z,1006.43
2017-05-19T00:29:09.056Z,1006.41
2017-05-19T00:29:49.951Z,1006.42
2017-05-19T00:30:30.848Z,1006.43
2017-05-19T00:31:11.739Z,1006.44
2017-05-19T00:31:52.642Z,1006.43
2017-05-19T00:32:33.523Z,1006.43
2017-05-19T00:33:14.418Z,1006.44
2017-05-19T00:33:55.325Z,1006.44
2017-05-19T00:34:36.221Z,1006.44
2017-05-19T00:35:17.130Z,1006.44
2017-05-19T00:35:58.020Z,1006.47
2017-05-19T00:36:38.926Z,1006.43
2017-05-19T00:37:19.810Z,1006.44
2017-05-19T00:38:00.711Z,1006.43
2017-05-19T00:38:41.613Z,1006.46
2017-05-19T00:39:22.505Z,1006.41
2017-05-19T00:41:16.155Z,1006.44
2017-05-19T00:41:57.049Z,1006.48
2017-05-19T00:42:37.945Z,1006.41
2017-05-19T00:43:18.838Z,1006.39
2017-05-19T00:43:59.739Z,1006.39
2017-05-19T00:44:40.621Z,1006.38
2017-05-19T00:45:21.508Z,1006.38
2017-05-19T00:46:02.396Z,1006.37
2017-05-19T00:46:43.312Z,1006.37
2017-05-19T00:47:24.188Z,1006.34
2017-05-19T00:48:05.082Z,1006.34
2017-05-19T00:48:45.991Z,1006.36
2017-05-19T00:49:26.872Z,1006.34
2017-05-19T00:50:07.770Z,1006.35
2017-05-19T00:50:48.666Z,1006.36
2017-05-19T00:51:29.549Z,1006.34
2017-05-19T00:52:10.433Z,1006.37
2017-05-19T00:52:51.380Z,1006.36
2017-05-19T00:53:32.236Z,1006.36
2017-05-19T00:54:13.136Z,1006.35
2017-05-19T00:54:54.047Z,1006.34
2017-05-19T00:55:34.961Z,1006.33
2017-05-19T00:56:15.842Z,1006.34
2017-05-19T00:56:56.718Z,1006.36
2017-05-19T00:57:37.604Z,1006.35
2017-05-19T00:58:18.509Z,1006.33
2017-05-19T00:58:59.392Z,1006.33
2017-05-19T00:59:40.300Z,1006.35
2017-05-19T01:00:21.191Z,1006.33
2017-05-19T01:01:02.070Z,1006.34
2017-05-19T01:01:42.961Z,1006.33
2017-05-19T01:02:23.885Z,1006.28
2017-05-19T01:03:04.782Z,1006.3
2017-05-19T01:03:45.679Z,1006.3
2017-05-19T01:04:26.562Z,1006.29
2017-05-19T01:05:07.440Z,1006.27
2017-05-19T01:05:48.350Z,1006.26
2017-05-19T01:06:29.238Z,1006.23
2017-05-19T01:07:10.113Z,1006.23
2017-05-19T01:07:50.997Z,1006.23
2017-05-19T01:08:31.897Z,1006.22
2017-05-19T01:09:12.770Z,1006.2
2017-05-19T01:09:53.656Z,1006.23
2017-05-19T01:10:34.553Z,1006.23
2017-05-19T01:11:15.440Z,1006.23
2017-05-19T01:11:56.324Z,1006.24
2017-05-19T01:12:37.221Z,1006.19
2017-05-19T01:13:18.129Z,1006.23
2017-05-19T01:13:59.018Z,1006.27
2017-05-19T01:14:39.921Z,1006.25
2017-05-19T01:15:20.809Z,1006.27
2017-05-19T01:16:01.695Z,1006.3
2017-05-19T01:16:42.597Z,1006.28
2017-05-19T01:17:23.485Z,1006.29
2017-05-19T01:18:04.375Z,1006.28
2017-05-19T01:18:45.284Z,1006.36
2017-05-19T01:19:26.160Z,1006.34
2017-05-19T01:20:07.051Z,1006.35
2017-05-19T01:20:47.953Z,1006.36
2017-05-19T01:21:28.833Z,1006.38
2017-05-19T01:22:09.722Z,1006.37
2017-05-19T01:22:50.625Z,1006.35
2017-05-19T01:23:31.507Z,1006.36
2017-05-19T01:24:12.381Z,1006.34
2017-05-19T01:24:53.278Z,1006.35
2017-05-19T01:25:34.177Z,1006.38
2017-05-19T01:26:15.057Z,1006.34
2017-05-19T01:26:55.951Z,1006.38
2017-05-19T01:27:36.855Z,1006.38
2017-05-19T01:28:17.753Z,1006.33
2017-05-19T01:28:58.654Z,1006.35
2017-05-19T01:29:39.533Z,1006.34
2017-05-19T01:30:20.412Z,1006.33
2017-05-19T01:31:01.332Z,1006.32
2017-05-19T01:31:42.228Z,1006.36
2017-05-19T01:32:23.086Z,1006.36
2017-05-19T01:33:03.985Z,1006.38
2017-05-19T01:33:44.878Z,1006.4
2017-05-19T01:34:25.754Z,1006.43
2017-05-19T01:35:06.651Z,1006.39
2017-05-19T01:35:47.551Z,1006.42
2017-05-19T01:36:28.459Z,1006.44
2017-05-19T01:37:09.352Z,1006.45
2017-05-19T01:37:50.241Z,1006.45
2017-05-19T01:38:31.131Z,1006.42
2017-05-19T01:39:12.072Z,1006.45
2017-05-19T01:39:53.006Z,1006.45
2017-05-19T01:40:33.954Z,1006.42
2017-05-19T01:41:14.871Z,1006.45
2017-05-19T01:41:55.790Z,1006.46
2017-05-19T01:42:36.680Z,1006.42
2017-05-19T01:43:17.671Z,1006.45
2017-05-19T01:43:58.561Z,1006.46
2017-05-19T01:44:39.480Z,1006.47
2017-05-19T01:45:20.375Z,1006.5
2017-05-19T01:46:01.239Z,1006.5
2017-05-19T01:46:42.118Z,1006.51
2017-05-19T01:47:23.016Z,1006.5
2017-05-19T01:48:03.908Z,1006.47
2017-05-19T01:48:44.798Z,1006.47
2017-05-19T01:49:25.705Z,1006.51
2017-05-19T01:50:06.599Z,1006.51
2017-05-19T01:50:47.499Z,1006.5
2017-05-19T01:51:28.434Z,1006.5
2017-05-19T01:52:09.273Z,1006.5
2017-05-19T01:52:50.169Z,1006.55
2017-05-19T01:53:31.061Z,1006.55
2017-05-19T01:54:11.952Z,1006.55
2017-05-19T01:54:52.844Z,1006.58
2017-05-19T01:55:33.743Z,1006.56
2017-05-19T01:56:14.628Z,1006.58
2017-05-19T01:56:55.526Z,1006.59
2017-05-19T01:57:36.413Z,1006.61
2017-05-19T01:58:17.302Z,1006.58
2017-05-19T01:58:58.199Z,1006.59
2017-05-19T01:59:39.092Z,1006.61
2017-05-19T02:00:19.979Z,1006.56
2017-05-19T02:01:00.861Z,1006.57
2017-05-19T02:01:41.883Z,1006.55
2017-05-19T02:02:22.654Z,1006.55
2017-05-19T02:03:03.553Z,1006.54
2017-05-19T02:03:44.459Z,1006.57
2017-05-19T02:04:25.334Z,1006.55
2017-05-19T02:05:06.231Z,1006.54
2017-05-19T02:05:47.131Z,1006.49
2017-05-19T02:06:28.007Z,1006.49
2017-05-19T02:07:08.892Z,1006.5
2017-05-19T02:07:49.793Z,1006.53
2017-05-19T02:08:30.678Z,1006.5
2017-05-19T02:09:11.579Z,1006.51
2017-05-19T02:09:52.480Z,1006.51
2017-05-19T02:10:33.355Z,1006.51
2017-05-19T02:11:14.249Z,1006.46
2017-05-19T02:11:55.147Z,1006.48
2017-05-19T02:12:36.040Z,1006.51
2017-05-19T02:13:16.932Z,1006.51
2017-05-19T02:13:57.846Z,1006.49
2017-05-19T02:14:38.731Z,1006.51
2017-05-19T02:15:19.630Z,1006.51
2017-05-19T02:16:00.530Z,1006.51
2017-05-19T02:16:41.429Z,1006.51
2017-05-19T02:17:22.338Z,1006.52
2017-05-19T02:18:03.248Z,1006.51
2017-05-19T02:18:44.151Z,1006.48
2017-05-19T02:19:25.043Z,1006.5
2017-05-19T02:20:05.950Z,1006.53
2017-05-19T02:20:46.841Z,1006.53
2017-05-19T02:21:27.714Z,1006.53
2017-05-19T02:22:08.629Z,1006.48
2017-05-19T02:22:49.511Z,1006.51
2017-05-19T02:23:30.404Z,1006.48
2017-05-19T02:24:11.299Z,1006.47
2017-05-19T02:24:52.183Z,1006.45
2017-05-19T02:25:33.077Z,1006.43
2017-05-19T02:26:13.980Z,1006.43
2017-05-19T02:26:54.859Z,1006.41
2017-05-19T02:27:35.754Z,1006.43
2017-05-19T02:28:16.664Z,1006.37
2017-05-19T02:28:57.535Z,1006.42
2017-05-19T02:29:38.433Z,1006.44
2017-05-19T02:30:19.320Z,1006.43
2017-05-19T02:31:00.208Z,1006.39
2017-05-19T02:31:41.092Z,1006.41
2017-05-19T02:32:22.004Z,1006.42
2017-05-19T02:33:02.890Z,1006.43
2017-05-19T02:33:43.798Z,1006.43
2017-05-19T02:34:24.682Z,1006.41
2017-05-19T02:35:05.563Z,1006.42
2017-05-19T02:35:46.445Z,1006.38
2017-05-19T02:36:27.346Z,1006.36
2017-05-19T02:37:08.237Z,1006.37
2017-05-19T02:37:49.129Z,1006.37
2017-05-19T02:38:30.019Z,1006.35
2017-05-19T02:39:10.911Z,1006.35
2017-05-19T02:39:51.809Z,1006.39
2017-05-19T02:40:32.703Z,1006.35
2017-05-19T02:41:13.592Z,1006.37
2017-05-19T02:41:54.485Z,1006.35
2017-05-19T02:42:35.386Z,1006.36
2017-05-19T02:43:16.268Z,1006.33
2017-05-19T02:43:57.156Z,1006.31
2017-05-19T02:44:38.053Z,1006.31
2017-05-19T02:45:18.936Z,1006.33
2017-05-19T02:45:59.811Z,1006.33
2017-05-19T02:46:40.707Z,1006.34
2017-05-19T02:47:21.596Z,1006.32
2017-05-19T02:48:02.478Z,1006.36
2017-05-19T02:48:43.369Z,1006.33
2017-05-19T02:49:24.262Z,1006.29
2017-05-19T02:50:05.148Z,1006.31
2017-05-19T02:50:46.016Z,1006.31
2017-05-19T02:51:26.917Z,1006.28
2017-05-19T02:52:07.819Z,1006.29
2017-05-19T02:52:48.763Z,1006.3
2017-05-19T02:53:29.643Z,1006.26
2017-05-19T02:54:10.531Z,1006.28
2017-05-19T02:54:51.429Z,1006.3
2017-05-19T02:55:32.315Z,1006.29
2017-05-19T02:56:13.199Z,1006.29
2017-05-19T02:56:54.086Z,1006.33
2017-05-19T02:57:34.989Z,1006.31
2017-05-19T02:58:15.864Z,1006.3
2017-05-19T02:58:56.759Z,1006.28
2017-05-19T02:59:37.651Z,1006.31
2017-05-19T03:00:18.533Z,1006.3
2017-05-19T03:00:59.427Z,1006.28
2017-05-19T03:01:40.311Z,1006.28
2017-05-19T03:02:21.187Z,1006.29
2017-05-19T03:03:02.078Z,1006.28
2017-05-19T03:03:42.975Z,1006.28
2017-05-19T03:04:23.864Z,1006.25
2017-05-19T03:05:04.745Z,1006.29
2017-05-19T03:05:45.644Z,1006.31
2017-05-19T03:06:26.534Z,1006.28
2017-05-19T03:07:07.416Z,1006.28
2017-05-19T03:07:48.321Z,1006.28
2017-05-19T03:08:29.223Z,1006.3
2017-05-19T03:09:10.121Z,1006.32
2017-05-19T03:09:51.027Z,1006.33
2017-05-19T03:10:31.909Z,1006.33
2017-05-19T03:11:12.857Z,1006.34
2017-05-19T03:11:53.743Z,1006.33
2017-05-19T03:12:34.642Z,1006.31
2017-05-19T03:13:15.538Z,1006.3
2017-05-19T03:13:56.425Z,1006.3
2017-05-19T03:14:37.315Z,1006.3
2017-05-19T03:15:18.212Z,1006.27
2017-05-19T03:15:59.090Z,1006.3
2017-05-19T03:16:39.989Z,1006.3
2017-05-19T03:17:20.884Z,1006.26
2017-05-19T03:18:01.776Z,1006.28
2017-05-19T03:18:42.673Z,1006.27
2017-05-19T03:19:23.566Z,1006.27
2017-05-19T03:20:04.456Z,1006.3
2017-05-19T03:20:45.347Z,1006.28
2017-05-19T03:21:26.235Z,1006.28
2017-05-19T03:22:07.140Z,1006.29
2017-05-19T03:22:48.045Z,1006.29
2017-05-19T03:23:28.926Z,1006.29
2017-05-19T03:24:09.841Z,1006.25
2017-05-19T03:24:50.722Z,1006.22
2017-05-19T03:25:31.609Z,1006.27
2017-05-19T03:26:12.502Z,1006.26
2017-05-19T03:26:53.395Z,1006.25
2017-05-19T03:27:34.285Z,1006.22
2017-05-19T03:28:15.176Z,1006.24
2017-05-19T03:28:56.080Z,1006.29
2017-05-19T03:29:36.965Z,1006.27
2017-05-19T03:30:17.871Z,1006.26
2017-05-19T03:30:58.760Z,1006.22
2017-05-19T03:31:39.634Z,1006.22
2017-05-19T03:32:20.527Z,1006.21
2017-05-19T03:33:01.422Z,1006.2
2017-05-19T03:33:42.306Z,1006.14
2017-05-19T03:34:23.208Z,1006.13
2017-05-19T03:35:04.100Z,1006.12
2017-05-19T03:35:44.975Z,1006.14
2017-05-19T03:36:25.847Z,1006.13
2017-05-19T03:37:06.757Z,1006.17
2017-05-19T03:37:47.650Z,1006.14
2017-05-19T03:38:28.541Z,1006.14
2017-05-19T03:39:09.435Z,1006.16
2017-05-19T03:39:50.334Z,1006.13
2017-05-19T03:40:31.234Z,1006.15
2017-05-19T03:41:12.126Z,1006.19
2017-05-19T03:41:53.014Z,1006.17
2017-05-19T03:42:33.927Z,1006.18
2017-05-19T03:43:14.819Z,1006.19
2017-05-19T03:43:55.713Z,1006.2
2017-05-19T03:44:36.622Z,1006.19
2017-05-19T03:45:17.503Z,1006.2
2017-05-19T03:45:58.403Z,1006.19
2017-05-19T03:46:39.306Z,1006.17
2017-05-19T03:47:20.183Z,1006.15
2017-05-19T03:48:01.062Z,1006.16
2017-05-19T03:48:41.967Z,1006.12
2017-05-19T03:49:22.853Z,1006.14
2017-05-19T03:50:03.749Z,1006.13
2017-05-19T03:50:44.650Z,1006.1
2017-05-19T03:51:25.526Z,1006.12
2017-05-19T03:52:06.411Z,1006.08
2017-05-19T03:52:47.311Z,1006.08
2017-05-19T03:53:28.249Z,1006.09
2017-05-19T03:54:09.100Z,1006.09
2017-05-19T03:54:50.002Z,1006.1
2017-05-19T03:55:30.886Z,1006.09
2017-05-19T03:56:11.783Z,1006.08
2017-05-19T03:56:52.668Z,1006.05
2017-05-19T03:57:33.541Z,1006.08
2017-05-19T03:58:14.420Z,1006.07
2017-05-19T03:58:55.319Z,1006.04
2017-05-19T03:59:36.218Z,1006.1
2017-05-19T04:00:17.092Z,1006.05
2017-05-19T04:00:57.989Z,1006.03
2017-05-19T04:01:38.896Z,1006.06
2017-05-19T04:02:19.791Z,1006.03
2017-05-19T04:03:00.680Z,1006.02
2017-05-19T04:03:41.569Z,1006.06
2017-05-19T04:04:22.445Z,1006.06
2017-05-19T04:05:03.364Z,1006.07
2017-05-19T04:05:44.230Z,1006.05
2017-05-19T04:06:25.104Z,1006.1
2017-05-19T04:07:06.019Z,1006.09
2017-05-19T04:07:46.922Z,1006.11
2017-05-19T04:08:27.805Z,1006.11
2017-05-19T04:09:08.718Z,1006.17
2017-05-19T04:09:49.606Z,1006.19
2017-05-19T04:10:30.496Z,1006.2
2017-05-19T04:11:11.394Z,1006.21
2017-05-19T04:11:52.280Z,1006.25
2017-05-19T04:12:33.173Z,1006.31
2017-05-19T04:13:14.067Z,1006.27
2017-05-19T04:13:54.953Z,1006.29
2017-05-19T04:14:35.849Z,1006.27
2017-05-19T04:15:16.748Z,1006.29
2017-05-19T04:15:57.679Z,1006.34
2017-05-19T04:16:38.583Z,1006.35
2017-05-19T04:17:19.481Z,1006.35
2017-05-19T04:18:00.382Z,1006.33
2017-05-19T04:18:41.257Z,1006.36
2017-05-19T04:19:22.144Z,1006.38
2017-05-19T04:20:03.050Z,1006.39
2017-05-19T04:20:43.941Z,1006.39
2017-05-19T04:21:24.827Z,1006.41
2017-05-19T04:22:05.721Z,1006.41
2017-05-19T04:22:46.619Z,1006.41
2017-05-19T04:23:27.518Z,1006.41
2017-05-19T04:24:08.415Z,1006.41
2017-05-19T04:24:49.295Z,1006.41
2017-05-19T04:25:30.190Z,1006.4
2017-05-19T04:26:11.088Z,1006.36
2017-05-19T04:26:51.978Z,1006.36
2017-05-19T04:27:32.861Z,1006.38
2017-05-19T04:28:13.763Z,1006.37
2017-05-19T04:28:54.648Z,1006.38
2017-05-19T04:29:35.532Z,1006.36
2017-05-19T04:30:16.440Z,1006.37
2017-05-19T04:30:57.461Z,1006.38
2017-05-19T04:31:38.363Z,1006.39
2017-05-19T04:32:19.239Z,1006.37
2017-05-19T04:33:00.133Z,1006.35
2017-05-19T04:33:41.032Z,1006.38
2017-05-19T04:34:21.918Z,1006.37
2017-05-19T04:35:02.818Z,1006.32
2017-05-19T04:35:43.714Z,1006.35
2017-05-19T04:36:24.600Z,1006.33
2017-05-19T04:37:05.769Z,1006.35
2017-05-19T04:38:38.988Z,1006.29
2017-05-19T04:39:19.879Z,1006.33
2017-05-19T04:40:00.769Z,1006.27
2017-05-19T04:40:41.663Z,1006.32
2017-05-19T04:41:22.557Z,1006.29
2017-05-19T04:42:03.438Z,1006.32
2017-05-19T04:42:44.329Z,1006.35
2017-05-19T04:43:25.225Z,1006.36
2017-05-19T04:44:06.112Z,1006.38
2017-05-19T04:44:47.009Z,1006.39
2017-05-19T04:45:27.901Z,1006.43
2017-05-19T04:46:08.799Z,1006.45
2017-05-19T04:46:49.674Z,1006.47
2017-05-19T04:47:30.601Z,1006.46
2017-05-19T04:48:11.512Z,1006.49
2017-05-19T04:48:52.415Z,1006.5
2017-05-19T04:49:33.291Z,1006.53
2017-05-19T04:50:14.181Z,1006.49
2017-05-19T04:50:55.086Z,1006.46
2017-05-19T04:51:35.972Z,1006.45
2017-05-19T04:52:16.842Z,1006.45
2017-05-19T04:52:57.746Z,1006.42
2017-05-19T04:53:38.639Z,1006.4
2017-05-19T04:54:19.521Z,1006.42
2017-05-19T04:55:00.421Z,1006.4
2017-05-19T04:55:41.312Z,1006.43
2017-05-19T04:56:22.202Z,1006.41
2017-05-19T04:57:03.105Z,1006.43
2017-05-19T04:57:43.988Z,1006.41
2017-05-19T04:58:24.844Z,1006.39
2017-05-19T04:59:05.725Z,1006.36
2017-05-19T04:59:46.618Z,1006.38
2017-05-19T05:00:27.513Z,1006.39
2017-05-19T05:01:08.390Z,1006.35
2017-05-19T05:01:49.284Z,1006.4
2017-05-19T05:02:30.191Z,1006.44
2017-05-19T05:03:11.065Z,1006.4
2017-05-19T05:03:51.957Z,1006.42
2017-05-19T05:04:32.982Z,1006.4
2017-05-19T05:05:13.868Z,1006.41
2017-05-19T05:05:54.764Z,1006.39
2017-05-19T05:06:35.659Z,1006.39
2017-05-19T05:07:16.540Z,1006.4
2017-05-19T05:07:57.436Z,1006.39
2017-05-19T05:08:38.321Z,1006.35
2017-05-19T05:09:19.191Z,1006.34
2017-05-19T05:10:00.079Z,1006.34
2017-05-19T05:10:40.979Z,1006.32
2017-05-19T05:11:21.869Z,1006.36
2017-05-19T05:12:02.753Z,1006.34
2017-05-19T05:12:43.654Z,1006.34
2017-05-19T05:13:24.535Z,1006.32
2017-05-19T05:14:05.412Z,1006.35
2017-05-19T05:14:46.313Z,1006.33
2017-05-19T05:15:27.230Z,1006.31
2017-05-19T05:16:08.119Z,1006.35
2017-05-19T05:16:49.009Z,1006.34
2017-05-19T05:17:29.881Z,1006.37
2017-05-19T05:18:10.774Z,1006.32
2017-05-19T05:18:51.670Z,1006.35
2017-05-19T05:19:32.566Z,1006.36
2017-05-19T05:20:13.463Z,1006.39
2017-05-19T05:20:54.420Z,1006.37
2017-05-19T05:21:35.278Z,1006.38
2017-05-19T05:22:16.186Z,1006.34
2017-05-19T05:22:57.089Z,1006.31
2017-05-19T05:23:37.988Z,1006.32
2017-05-19T05:24:18.871Z,1006.29
2017-05-19T05:24:59.772Z,1006.29
2017-05-19T05:25:40.663Z,1006.3
2017-05-19T05:26:21.553Z,1006.32
2017-05-19T05:27:02.444Z,1006.3
2017-05-19T05:27:43.357Z,1006.33
2017-05-19T05:28:24.250Z,1006.35
2017-05-19T05:29:05.139Z,1006.4
2017-05-19T05:29:46.038Z,1006.38
2017-05-19T05:30:26.938Z,1006.36
2017-05-19T05:31:07.830Z,1006.4
2017-05-19T05:31:48.713Z,1006.39
2017-05-19T05:32:29.602Z,1006.36
2017-05-19T05:33:10.491Z,1006.34
2017-05-19T05:33:51.384Z,1006.37
2017-05-19T05:34:32.283Z,1006.34
2017-05-19T05:35:13.177Z,1006.37
2017-05-19T05:35:54.074Z,1006.3
2017-05-19T05:36:34.964Z,1006.32
2017-05-19T05:37:15.863Z,1006.32
2017-05-19T05:37:56.754Z,1006.3
2017-05-19T05:38:37.648Z,1006.34
2017-05-19T05:39:18.541Z,1006.35
2017-05-19T05:39:59.551Z,1006.36
2017-05-19T05:40:40.384Z,1006.37
2017-05-19T05:41:21.287Z,1006.39
2017-05-19T05:42:02.175Z,1006.35
2017-05-19T05:42:43.102Z,1006.39
2017-05-19T05:43:24.010Z,1006.35
2017-05-19T05:44:04.901Z,1006.35
2017-05-19T05:44:45.794Z,1006.35
2017-05-19T05:45:26.691Z,1006.36
2017-05-19T05:46:07.579Z,1006.35
2017-05-19T05:46:48.481Z,1006.37
2017-05-19T05:47:29.350Z,1006.33
2017-05-19T05:48:10.262Z,1006.33
2017-05-19T05:48:51.170Z,1006.36
2017-05-19T05:49:32.091Z,1006.35
2017-05-19T05:50:12.973Z,1006.41
2017-05-19T05:50:53.868Z,1006.37
2017-05-19T05:51:34.763Z,1006.44
2017-05-19T05:52:15.661Z,1006.42
2017-05-19T05:52:56.584Z,1006.45
2017-05-19T05:53:37.510Z,1006.44
2017-05-19T05:54:18.416Z,1006.42
2017-05-19T05:54:59.340Z,1006.42
2017-05-19T05:55:40.233Z,1006.4
2017-05-19T05:56:21.994Z,1006.4
2017-05-19T05:57:02.910Z,1006.35
2017-05-19T05:57:43.808Z,1006.35
2017-05-19T05:58:24.704Z,1006.34
2017-05-19T05:59:05.602Z,1006.33
2017-05-19T05:59:46.506Z,1006.3
2017-05-19T06:00:27.396Z,1006.32
2017-05-19T06:01:08.319Z,1006.33
2017-05-19T06:01:49.177Z,1006.31
2017-05-19T06:02:30.075Z,1006.3
2017-05-19T06:03:10.971Z,1006.3
2017-05-19T06:03:51.867Z,1006.28
2017-05-19T06:04:32.770Z,1006.27
2017-05-19T06:05:13.666Z,1006.3
2017-05-19T06:05:54.582Z,1006.24
2017-05-19T06:06:35.473Z,1006.24
2017-05-19T06:07:16.385Z,1006.26
2017-05-19T06:07:57.285Z,1006.27
2017-05-19T06:08:38.202Z,1006.26
2017-05-19T06:09:19.126Z,1006.25
2017-05-19T06:10:00.095Z,1006.25
2017-05-19T06:10:41.003Z,1006.25
2017-05-19T06:11:21.919Z,1006.25
2017-05-19T06:13:20.683Z,1006.24
2017-05-19T06:14:01.564Z,1006.25
2017-05-19T06:14:42.463Z,1006.27
2017-05-19T06:15:23.356Z,1006.28
2017-05-19T06:16:04.261Z,1006.28
2017-05-19T06:16:45.162Z,1006.31
2017-05-19T06:17:26.091Z,1006.28
2017-05-19T06:18:06.979Z,1006.25
2017-05-19T06:18:47.889Z,1006.24
2017-05-19T06:19:28.799Z,1006.22
2017-05-19T06:20:09.704Z,1006.22
2017-05-19T06:20:50.590Z,1006.19
2017-05-19T06:21:31.487Z,1006.13
2017-05-19T06:22:12.381Z,1006.19
2017-05-19T06:22:53.357Z,1006.15
2017-05-19T06:23:34.249Z,1006.18
2017-05-19T06:24:15.126Z,1006.17
2017-05-19T06:24:56.058Z,1006.18
2017-05-19T06:25:36.954Z,1006.16
2017-05-19T06:26:17.839Z,1006.2
2017-05-19T06:26:58.750Z,1006.2
2017-05-19T06:27:39.665Z,1006.17
2017-05-19T06:28:20.586Z,1006.24
2017-05-19T06:29:01.607Z,1006.26
2017-05-19T06:29:42.404Z,1006.29
2017-05-19T06:30:23.369Z,1006.29
2017-05-19T06:31:04.360Z,1006.28
2017-05-19T06:31:45.264Z,1006.26
2017-05-19T06:32:26.223Z,1006.27
2017-05-19T06:33:07.129Z,1006.28
2017-05-19T06:33:48.042Z,1006.31
2017-05-19T06:34:28.947Z,1006.34
2017-05-19T06:35:09.856Z,1006.31
2017-05-19T06:35:50.748Z,1006.3
2017-05-19T06:36:31.659Z,1006.32
2017-05-19T06:37:12.564Z,1006.29
2017-05-19T06:37:53.463Z,1006.28
2017-05-19T06:38:34.358Z,1006.25
2017-05-19T06:39:15.259Z,1006.21
2017-05-19T06:39:56.167Z,1006.22
2017-05-19T06:40:37.073Z,1006.21
2017-05-19T06:41:17.965Z,1006.24
2017-05-19T06:41:59.018Z,1006.27
2017-05-19T06:42:39.918Z,1006.29
2017-05-19T06:43:20.861Z,1006.25
2017-05-19T06:44:01.727Z,1006.25
2017-05-19T06:44:42.673Z,1006.21
2017-05-19T06:45:23.603Z,1006.24
2017-05-19T06:46:04.503Z,1006.28
2017-05-19T06:46:45.417Z,1006.29
2017-05-19T06:47:26.315Z,1006.32
2017-05-19T06:48:07.220Z,1006.29
2017-05-19T06:48:48.124Z,1006.28
2017-05-19T06:49:29.017Z,1006.3
2017-05-19T06:50:09.923Z,1006.29
2017-05-19T06:50:50.835Z,1006.26
2017-05-19T06:51:31.745Z,1006.29
2017-05-19T06:52:12.666Z,1006.32
2017-05-19T06:52:53.580Z,1006.3
2017-05-19T06:53:34.489Z,1006.32
2017-05-19T06:54:15.392Z,1006.28
2017-05-19T06:54:56.302Z,1006.29
2017-05-19T06:55:37.211Z,1006.31
2017-05-19T06:56:18.123Z,1006.27
2017-05-19T06:56:59.050Z,1006.23
2017-05-19T06:57:39.964Z,1006.29
2017-05-19T06:58:20.866Z,1006.26
2017-05-19T06:59:01.780Z,1006.23
2017-05-19T06:59:42.688Z,1006.23
2017-05-19T07:00:23.593Z,1006.27
2017-05-19T07:01:04.499Z,1006.24
2017-05-19T07:01:45.416Z,1006.21
2017-05-19T07:02:26.326Z,1006.22
2017-05-19T07:03:07.237Z,1006.2
2017-05-19T07:03:48.138Z,1006.24
2017-05-19T07:04:29.053Z,1006.24
2017-05-19T07:05:09.964Z,1006.14
2017-05-19T07:05:50.870Z,1006.18
2017-05-19T07:06:31.801Z,1006.19
2017-05-19T07:07:12.670Z,1006.2
2017-05-19T07:07:53.574Z,1006.23
2017-05-19T07:08:34.486Z,1006.2
2017-05-19T07:09:15.379Z,1006.18
2017-05-19T07:09:56.295Z,1006.22
2017-05-19T07:10:37.213Z,1006.22
2017-05-19T07:11:18.122Z,1006.19
2017-05-19T07:11:59.029Z,1006.19
2017-05-19T07:12:39.929Z,1006.17
2017-05-19T07:13:20.842Z,1006.17
2017-05-19T07:14:01.750Z,1006.17
2017-05-19T07:14:42.666Z,1006.17
2017-05-19T07:15:23.573Z,1006.11
2017-05-19T07:16:04.487Z,1006.14
2017-05-19T07:16:45.376Z,1006.15
2017-05-19T07:17:26.287Z,1006.14
2017-05-19T07:18:07.205Z,1006.12
2017-05-19T07:18:48.113Z,1006.11
2017-05-19T07:19:29.034Z,1006.13
2017-05-19T07:20:09.950Z,1006.11
2017-05-19T07:20:50.860Z,1006.09
2017-05-19T07:21:31.757Z,1006.12
2017-05-19T07:22:12.663Z,1006.06
2017-05-19T07:22:53.562Z,1006.05
2017-05-19T07:23:34.477Z,1006.11
2017-05-19T07:24:15.397Z,1006.08
2017-05-19T07:24:56.292Z,1006.06
2017-05-19T07:25:37.219Z,1006.08
2017-05-19T07:26:18.161Z,1006.08
2017-05-19T07:26:59.063Z,1006.13
2017-05-19T07:27:39.970Z,1006.05
2017-05-19T07:28:20.926Z,1006.04
2017-05-19T07:29:01.849Z,1006.08
2017-05-19T07:29:42.765Z,1006.06
2017-05-19T07:30:23.681Z,1006.08
2017-05-19T07:31:04.582Z,1006.05
2017-05-19T07:31:45.499Z,1006.06
2017-05-19T07:32:26.408Z,1006.12
2017-05-19T07:33:07.325Z,1006.12
2017-05-19T07:33:48.236Z,1006.12
2017-05-19T07:34:29.147Z,1006.14
2017-05-19T07:35:10.145Z,1006.13
2017-05-19T07:35:51.137Z,1006.11
2017-05-19T07:36:32.083Z,1006.1
2017-05-19T07:37:12.992Z,1006.1
2017-05-19T07:37:53.902Z,1006.1
2017-05-19T07:38:34.804Z,1006.08
2017-05-19T07:39:15.701Z,1006.05
2017-05-19T07:39:56.600Z,1006.05
2017-05-19T07:40:37.523Z,1006.08
2017-05-19T07:41:18.444Z,1006.03
2017-05-19T07:42:00.115Z,1006
2017-05-19T07:42:40.229Z,1005.95
2017-05-19T07:43:21.133Z,1005.95
2017-05-19T07:44:02.066Z,1005.96
2017-05-19T07:44:43.003Z,1005.95
2017-05-19T07:45:23.897Z,1005.91
2017-05-19T07:47:23.756Z,1005.92
2017-05-19T07:48:04.665Z,1005.9
2017-05-19T07:48:45.578Z,1005.89
2017-05-19T07:49:26.501Z,1005.92
2017-05-19T07:50:07.421Z,1005.88
2017-05-19T07:50:48.335Z,1005.84
2017-05-19T07:51:29.250Z,1005.83
2017-05-19T07:52:10.168Z,1005.85
2017-05-19T07:52:51.086Z,1005.83
2017-05-19T07:53:32.011Z,1005.82
2017-05-19T07:54:12.915Z,1005.83
2017-05-19T07:54:53.826Z,1005.79
2017-05-19T07:55:34.767Z,1005.8
2017-05-19T07:56:15.670Z,1005.82
2017-05-19T07:56:56.623Z,1005.84
2017-05-19T07:57:37.528Z,1005.81
2017-05-19T07:58:18.444Z,1005.81
2017-05-19T07:58:59.362Z,1005.82
2017-05-19T07:59:40.272Z,1005.79
2017-05-19T08:00:21.183Z,1005.79
2017-05-19T08:01:02.092Z,1005.79
2017-05-19T08:01:43.017Z,1005.83
2017-05-19T08:02:23.923Z,1005.81
2017-05-19T08:03:04.848Z,1005.82
2017-05-19T08:03:45.765Z,1005.81
2017-05-19T08:04:26.683Z,1005.78
2017-05-19T08:05:07.600Z,1005.81
2017-05-19T08:05:48.517Z,1005.76
2017-05-19T08:06:29.418Z,1005.76
2017-05-19T08:07:10.336Z,1005.77
2017-05-19T08:07:51.250Z,1005.72
2017-05-19T08:08:32.156Z,1005.74
2017-05-19T08:09:13.070Z,1005.69
2017-05-19T08:09:53.972Z,1005.74
2017-05-19T08:10:34.908Z,1005.7
2017-05-19T08:11:15.825Z,1005.73
2017-05-19T08:11:56.737Z,1005.74
2017-05-19T08:12:37.660Z,1005.7
2017-05-19T08:13:18.580Z,1005.74
2017-05-19T08:13:59.528Z,1005.72
2017-05-19T08:14:40.453Z,1005.73
2017-05-19T08:15:21.375Z,1005.73
2017-05-19T08:16:03.134Z,1005.72
2017-05-19T08:16:43.200Z,1005.71
2017-05-19T08:17:24.124Z,1005.68
2017-05-19T08:18:05.028Z,1005.69
2017-05-19T08:18:45.963Z,1005.62
2017-05-19T08:19:26.909Z,1005.61
2017-05-19T08:20:07.802Z,1005.63
2017-05-19T08:20:48.717Z,1005.6
2017-05-19T08:21:29.635Z,1005.63